Time;durP1;ratioP1;P1;durP2;ratioP2;P2;SDS_P1;SDS_P2;PMS_P1;PMS_P2;Temp;Humidity;BMP_temperature;BMP_pressure;BME280_temperature;BME280_humidity;BME280_pressure;Samples;Min_cycle;Max_cycle;Signal;HPM_P1;HPM_P2
2021/04/08 08:03:04;;;;;;;3.13;1.45;;;;;;;16.31;43.88;102318.97;4990023;28;96604;-75
2021/04/08 08:05:35;;;;;;;4.95;2.97;;;;;;;16.78;43.39;102319.50;5010618;22;96922;-71
2021/04/08 08:08:08;;;;;;;2.22;1.20;;;;;;;17.41;42.35;102318.31;4954186;28;98702;-71
2021/04/08 08:10:33;;;;;;;3.63;1.38;;;;;;;17.98;41.65;102320.47;4959141;28;98849;-71
2021/04/08 08:12:58;;;;;;;2.88;1.45;;;;;;;18.48;40.61;102316.28;4971729;28;96829;-71
2021/04/08 08:15:28;;;;;;;3.28;1.27;;;;;;;18.90;39.92;102315.53;4969907;28;100408;-72
2021/04/08 08:17:55;;;;;;;2.78;1.30;;;;;;;19.27;39.41;102317.31;4922899;28;97774;-71
2021/04/08 08:20:21;;;;;;;2.88;1.73;;;;;;;19.57;38.79;102322.59;4934939;28;97270;-72
2021/04/08 08:22:46;;;;;;;3.38;1.52;;;;;;;19.83;38.48;102313.75;4950686;28;96906;-72
2021/04/08 08:25:13;;;;;;;2.28;1.42;;;;;;;20.07;37.74;102314.56;4947203;28;96952;-71
2021/04/08 08:27:42;;;;;;;3.15;2.10;;;;;;;20.26;37.42;102316.25;4943824;28;100564;-71
2021/04/08 08:30:10;;;;;;;2.58;1.30;;;;;;;20.45;37.20;102319.69;4928450;28;97346;-71
2021/04/08 08:32:35;;;;;;;3.85;1.25;;;;;;;20.61;36.68;102319.63;4930859;28;97219;-70
2021/04/08 08:35:01;;;;;;;3.58;1.63;;;;;;;20.73;36.68;102314.28;4926115;28;96905;-69
2021/04/08 08:37:26;;;;;;;2.33;1.52;;;;;;;20.87;36.43;102317.72;4914221;28;111627;-70
2021/04/08 08:39:52;;;;;;;2.90;1.38;;;;;;;20.98;36.01;102314.97;4937379;28;129174;-70
2021/04/08 08:42:19;;;;;;;2.42;1.77;;;;;;;21.09;36.18;102314.91;4931953;28;108411;-71
2021/04/08 08:44:44;;;;;;;5.43;1.85;;;;;;;21.18;35.80;102325.44;4939746;28;110135;-70
2021/04/08 08:47:18;;;;;;;2.83;1.80;;;;;;;21.24;35.90;102328.03;4913386;28;119054;-70
2021/04/08 08:49:51;;;;;;;2.28;1.45;;;;;;;21.32;35.50;102321.75;4951214;28;97300;-71
2021/04/08 08:52:20;;;;;;;5.00;1.63;;;;;;;21.38;35.61;102316.41;4900771;28;97285;-70
2021/04/08 08:54:45;;;;;;;4.93;1.67;;;;;;;21.44;35.55;102316.34;4937676;28;97148;-71
2021/04/08 08:57:11;;;;;;;2.25;1.10;;;;;;;21.49;35.22;102312.78;4913885;28;126827;-71
2021/04/08 08:59:36;;;;;;;3.05;1.35;;;;;;;21.55;35.33;102317.19;4931707;28;125519;-71
2021/04/08 09:02:02;;;;;;;3.72;1.67;;;;;;;21.59;35.28;102310.94;4920231;28;98249;-71
2021/04/08 09:04:28;;;;;;;4.10;1.63;;;;;;;21.63;35.00;102317.09;4935942;28;96998;-71
2021/04/08 09:06:53;;;;;;;2.67;1.70;;;;;;;21.66;34.99;102311.75;4937051;28;97549;-71
2021/04/08 09:09:21;;;;;;;2.88;1.70;;;;;;;21.70;34.55;102310.81;4941895;28;113127;-71
2021/04/08 09:11:47;;;;;;;3.58;1.52;;;;;;;21.75;34.66;102324.06;4948918;28;97262;-69
2021/04/08 09:14:12;;;;;;;2.05;1.23;;;;;;;21.76;34.56;102313.41;4905103;28;96933;-71
2021/04/08 09:16:43;;;;;;;1.67;1.20;;;;;;;21.78;34.28;102321.34;4915595;28;126831;-71
2021/04/08 09:19:09;;;;;;;3.05;2.08;;;;;;;21.82;34.35;102320.44;4938699;28;97099;-75
2021/04/08 09:21:46;;;;;;;2.70;1.60;;;;;;;21.81;34.20;102313.34;4918010;28;98545;-71
2021/04/08 09:24:13;;;;;;;3.05;2.00;;;;;;;21.84;34.28;102316.84;4925208;28;96829;-72
2021/04/08 09:26:39;;;;;;;3.13;1.50;;;;;;;21.85;34.30;102312.41;4901111;28;100294;-71
2021/04/08 09:29:05;;;;;;;2.22;1.80;;;;;;;21.87;33.82;102313.28;4887960;28;125767;-71
2021/04/08 09:31:31;;;;;;;3.55;1.70;;;;;;;21.86;33.87;102315.06;4923805;28;97423;-71
2021/04/08 09:33:58;;;;;;;3.45;1.33;;;;;;;21.87;33.54;102313.28;4941358;28;96779;-71
2021/04/08 09:36:24;;;;;;;3.10;1.50;;;;;;;21.88;33.53;102308.88;4935427;28;97809;-71
2021/04/08 09:38:50;;;;;;;3.30;3.00;;;;;;;21.88;33.68;102303.56;4916806;28;98970;-71
2021/04/08 09:41:15;;;;;;;2.85;1.20;;;;;;;21.89;33.55;102306.19;4904796;28;97227;-71
2021/04/08 09:43:41;;;;;;;3.90;1.33;;;;;;;21.89;33.48;102300.88;4918006;28;97312;-71
2021/04/08 09:46:08;;;;;;;2.50;1.30;;;;;;;21.89;33.16;102299.97;4906719;28;100142;-71
2021/04/08 09:48:47;;;;;;;2.22;1.40;;;;;;;21.89;33.62;102297.31;4911427;28;98929;-71
2021/04/08 09:51:26;;;;;;;2.33;1.27;;;;;;;21.88;33.53;102299.09;4952626;28;96841;-71
2021/04/08 09:53:55;;;;;;;2.15;1.30;;;;;;;21.89;33.40;102300.88;4903311;28;97108;-71
2021/04/08 09:56:53;;;;;;;3.58;1.60;;;;;;;21.85;33.34;102294.72;4938855;28;99647;-71
2021/04/08 09:59:19;;;;;;;2.25;1.48;;;;;;;21.90;33.50;102296.44;4916423;28;99501;-71
2021/04/08 10:01:44;;;;;;;3.00;1.42;;;;;;;21.89;33.28;102292.00;4929447;28;96752;-71
2021/04/08 10:04:14;;;;;;;3.85;1.63;;;;;;;21.88;33.13;102293.81;4928043;28;96814;-72
2021/04/08 10:06:40;;;;;;;2.63;1.60;;;;;;;21.89;33.20;102295.56;4925432;28;98482;-71
2021/04/08 10:09:09;;;;;;;2.33;1.33;;;;;;;21.89;33.22;102294.66;4910926;28;115409;-71
2021/04/08 10:11:35;;;;;;;3.03;1.60;;;;;;;21.88;33.21;102291.13;4925783;28;96781;-71
2021/04/08 10:14:00;;;;;;;1.95;1.35;;;;;;;21.89;33.00;102289.34;4928706;28;96873;-71
2021/04/08 10:16:26;;;;;;;1.90;1.60;;;;;;;21.89;32.90;102289.34;4934932;28;98823;-71
2021/04/08 10:19:01;;;;;;;2.20;1.70;;;;;;;21.86;32.88;102285.84;4918088;28;97204;-72
2021/04/08 10:21:26;;;;;;;2.83;1.80;;;;;;;21.88;32.72;102285.81;4918111;28;97286;-71
2021/04/08 10:23:52;;;;;;;1.80;1.17;;;;;;;21.88;32.97;102287.63;4919810;28;96720;-71
2021/04/08 10:26:21;;;;;;;1.92;1.35;;;;;;;21.88;33.07;102287.63;4917970;28;97933;-71
2021/04/08 10:28:54;;;;;;;2.35;0.90;;;;;;;21.86;33.11;102287.63;4918042;28;121613;-72
2021/04/08 10:31:23;;;;;;;2.30;1.45;;;;;;;21.86;33.14;102288.50;4899971;28;96843;-71
2021/04/08 10:33:53;;;;;;;1.77;1.25;;;;;;;21.86;32.90;102291.16;4937792;28;96765;-71
2021/04/08 10:36:35;;;;;;;2.20;1.13;;;;;;;21.82;32.83;102289.44;4901662;28;99280;-71
2021/04/08 10:39:13;;;;;;;2.30;1.40;;;;;;;21.83;32.84;102283.22;4918530;28;97659;-72
2021/04/08 10:41:40;;;;;;;2.15;1.67;;;;;;;21.84;32.97;102278.81;4931176;28;97069;-71
2021/04/08 10:44:24;;;;;;;2.22;1.20;;;;;;;21.80;32.86;102275.31;4917776;28;96710;-72
2021/04/08 10:46:50;;;;;;;1.92;1.42;;;;;;;21.82;32.73;102275.28;4936468;28;98047;-72
2021/04/08 10:49:37;;;;;;;2.92;1.55;;;;;;;21.77;32.89;102270.03;4915098;28;99689;-71
2021/04/08 10:52:07;;;;;;;3.05;1.33;;;;;;;21.80;32.71;102277.06;4934312;28;96671;-71
2021/04/08 10:54:34;;;;;;;2.10;1.23;;;;;;;21.79;32.89;102277.97;4931464;28;97544;-71
2021/04/08 10:56:59;;;;;;;2.72;1.38;;;;;;;21.78;32.67;102276.19;4920336;28;99280;-71
2021/04/08 10:59:26;;;;;;;1.80;1.17;;;;;;;21.78;32.60;102276.19;4914894;28;115709;-71
2021/04/08 11:01:52;;;;;;;1.80;1.50;;;;;;;21.78;32.87;102276.19;4921958;28;97865;-71
2021/04/08 11:04:18;;;;;;;1.67;1.30;;;;;;;21.76;32.68;102273.56;4919106;28;110758;-71
2021/04/08 11:06:45;;;;;;;2.95;1.35;;;;;;;21.77;32.87;102277.13;4915311;28;100488;-71
2021/04/08 11:09:11;;;;;;;2.83;1.55;;;;;;;21.76;32.87;102278.00;4915017;28;126936;-72
2021/04/08 11:11:36;;;;;;;2.17;1.50;;;;;;;21.76;32.58;102272.69;4933487;28;97220;-72
2021/04/08 11:14:02;;;;;;;2.47;1.50;;;;;;;21.75;32.87;102273.59;4931770;28;96957;-71
2021/04/08 11:16:28;;;;;;;2.38;1.60;;;;;;;21.74;32.74;102267.38;4937337;28;101042;-71
2021/04/08 11:18:59;;;;;;;2.53;1.27;;;;;;;21.74;32.50;102267.38;4951819;28;96723;-71
2021/04/08 11:21:25;;;;;;;2.55;1.48;;;;;;;21.74;32.38;102272.69;4922969;28;96864;-72
2021/04/08 11:23:51;;;;;;;1.92;1.50;;;;;;;21.73;32.74;102267.41;4931482;28;96892;-72
2021/04/08 11:26:16;;;;;;;2.00;1.30;;;;;;;21.71;32.66;102261.25;4942849;28;127576;-72
2021/04/08 11:28:42;;;;;;;2.35;1.70;;;;;;;21.73;32.71;102256.78;4923287;28;100023;-71
2021/04/08 11:31:14;;;;;;;3.35;2.83;;;;;;;21.71;32.57;102261.25;4918672;28;96854;-71
2021/04/08 11:33:39;;;;;;;1.70;1.13;;;;;;;21.71;32.51;102254.19;4931207;28;96877;-71
2021/04/08 11:36:15;;;;;;;1.30;1.10;;;;;;;21.68;32.58;102259.50;4932107;28;128530;-71
2021/04/08 11:38:40;;;;;;;1.80;1.15;;;;;;;21.69;32.67;102261.25;4913385;28;127118;-71
2021/04/08 11:41:07;;;;;;;2.35;1.50;;;;;;;21.68;32.56;102259.50;4933571;28;105102;-72
2021/04/08 11:43:40;;;;;;;2.67;1.40;;;;;;;21.68;32.43;102256.84;4908093;28;97552;-71
2021/04/08 11:46:05;;;;;;;2.72;1.50;;;;;;;21.68;32.80;102257.72;4915225;28;100351;-71
2021/04/08 11:48:44;;;;;;;2.03;1.08;;;;;;;21.66;32.80;102253.34;4929097;28;97453;-71
2021/04/08 11:51:10;;;;;;;1.98;1.40;;;;;;;21.67;32.34;102253.31;4922893;28;96727;-71
2021/04/08 11:53:36;;;;;;;1.45;1.13;;;;;;;21.67;32.57;102257.75;4954758;28;96878;-71
2021/04/08 11:56:02;;;;;;;2.30;1.65;;;;;;;21.67;32.48;102244.47;4923349;28;116956;-71
2021/04/08 11:58:32;;;;;;;1.90;1.20;;;;;;;21.65;32.60;102241.81;4909433;28;120075;-71
2021/04/08 12:01:10;;;;;;;2.08;1.45;;;;;;;21.65;32.68;102244.47;4951329;28;96819;-71
2021/04/08 12:03:41;;;;;;;1.73;1.40;;;;;;;21.65;32.38;102241.81;4934119;28;96916;-71
2021/04/08 12:06:09;;;;;;;3.33;1.60;;;;;;;21.65;32.65;102248.91;4914810;28;105675;-71
2021/04/08 12:08:39;;;;;;;2.25;1.40;;;;;;;21.65;32.65;102239.16;4932178;28;99248;-71
2021/04/08 12:11:04;;;;;;;1.67;1.15;;;;;;;21.66;32.40;102234.75;4918563;28;97027;-71
2021/04/08 12:13:30;;;;;;;2.17;1.40;;;;;;;21.65;32.29;102233.84;4933362;28;112061;-71
2021/04/08 12:15:55;;;;;;;1.48;1.38;;;;;;;21.66;32.47;102234.75;4934291;28;98321;-71
2021/04/08 12:18:24;;;;;;;2.92;1.85;;;;;;;21.66;32.66;102234.75;4926871;28;126585;-71
2021/04/08 12:20:51;;;;;;;1.63;1.30;;;;;;;21.66;32.34;102232.09;4929540;28;97120;-71
2021/04/08 12:23:24;;;;;;;1.20;0.85;;;;;;;21.66;32.47;102234.75;4901824;28;99553;-71
2021/04/08 12:25:51;;;;;;;3.03;1.40;;;;;;;21.66;32.27;102234.75;4943073;28;112774;-71
2021/04/08 12:28:18;;;;;;;2.60;2.20;;;;;;;21.65;32.57;102236.50;4933984;28;97887;-72
2021/04/08 12:30:56;;;;;;;2.05;1.25;;;;;;;21.66;32.22;102232.09;4946034;28;96818;-71
2021/04/08 12:33:21;;;;;;;2.13;1.70;;;;;;;21.66;32.44;102224.13;4915856;28;96884;-72
2021/04/08 12:35:47;;;;;;;1.58;1.27;;;;;;;21.66;32.53;102224.13;4900572;28;112767;-71
2021/04/08 12:38:13;;;;;;;2.38;2.17;;;;;;;21.65;32.25;102225.88;4926755;28;127060;-71
2021/04/08 12:40:38;;;;;;;1.75;1.50;;;;;;;21.65;32.34;102223.22;4929376;28;97679;-71
2021/04/08 12:43:04;;;;;;;1.50;0.90;;;;;;;21.65;32.34;102217.91;4917391;28;96650;-71
2021/04/08 12:45:29;;;;;;;2.30;1.42;;;;;;;21.65;32.27;102217.06;4933065;28;99919;-71
2021/04/08 12:47:55;;;;;;;2.15;1.20;;;;;;;21.66;32.35;102224.13;4933593;28;109327;-71
2021/04/08 12:50:20;;;;;;;2.50;1.70;;;;;;;21.66;32.48;102218.81;4923052;28;100897;-71
2021/04/08 12:52:46;;;;;;;1.98;1.30;;;;;;;21.66;32.17;102218.81;4924049;28;96867;-71
2021/04/08 12:55:12;;;;;;;1.95;1.33;;;;;;;21.66;32.24;102209.06;4938596;28;126953;-71
2021/04/08 12:57:38;;;;;;;2.78;1.20;;;;;;;21.66;32.33;102206.41;4934508;28;104057;-71
2021/04/08 13:00:04;;;;;;;1.90;1.27;;;;;;;21.66;32.24;102198.44;4936600;28;97032;-71
2021/04/08 13:02:30;;;;;;;2.22;1.30;;;;;;;21.67;32.33;102207.28;4919147;28;111930;-71
2021/04/08 13:04:55;;;;;;;1.73;1.30;;;;;;;21.66;32.22;102201.09;4933122;28;98794;-71
2021/04/08 13:07:22;;;;;;;2.33;1.70;;;;;;;21.67;32.24;102199.31;4929595;28;126580;-71
2021/04/08 13:09:47;;;;;;;1.42;1.00;;;;;;;21.66;32.03;102193.13;4936200;28;96972;-71
2021/04/08 13:12:13;;;;;;;1.80;1.63;;;;;;;21.66;32.44;102190.47;4935399;28;112828;-71
2021/04/08 13:14:38;;;;;;;1.58;1.20;;;;;;;21.67;32.24;102191.34;4905986;28;111624;-71
2021/04/08 13:17:04;;;;;;;2.17;1.10;;;;;;;21.67;32.27;102186.94;4909523;28;117555;-71
2021/04/08 13:19:29;;;;;;;1.75;1.23;;;;;;;21.67;32.17;102178.97;4915582;28;111888;-71
2021/04/08 13:21:54;;;;;;;1.38;1.25;;;;;;;21.68;32.25;102179.84;4919475;28;104805;-71
2021/04/08 13:24:20;;;;;;;2.13;1.60;;;;;;;21.67;32.31;102171.00;4918339;28;99026;-71
2021/04/08 13:26:45;;;;;;;1.70;1.17;;;;;;;21.68;31.99;102171.88;4926709;28;125943;-71
2021/04/08 13:29:11;;;;;;;2.00;1.70;;;;;;;21.68;32.25;102166.56;4927277;28;112047;-71
2021/04/08 13:31:37;;;;;;;3.42;1.70;;;;;;;21.68;32.18;102177.19;4907807;28;111813;-71
2021/04/08 13:34:02;;;;;;;1.60;1.20;;;;;;;21.68;32.35;102164.78;4941898;28;100774;-71
2021/04/08 13:36:28;;;;;;;1.55;1.10;;;;;;;21.69;32.17;102163.00;4926042;28;123119;-71
2021/04/08 13:38:53;;;;;;;1.98;1.50;;;;;;;21.69;32.18;102155.03;4932807;28;96643;-71
2021/04/08 13:41:19;;;;;;;1.95;1.23;;;;;;;21.70;32.21;102148.84;4917556;28;111658;-72
2021/04/08 13:43:44;;;;;;;2.47;1.90;;;;;;;21.70;32.31;102151.50;4919044;28;98795;-71
2021/04/08 13:46:09;;;;;;;2.08;1.27;;;;;;;21.71;32.30;102141.75;4915211;28;126566;-71
2021/04/08 13:48:35;;;;;;;1.90;1.17;;;;;;;21.72;32.18;102148.81;4929417;28;108491;-71
2021/04/08 13:51:00;;;;;;;2.65;1.15;;;;;;;21.72;32.23;102148.81;4948932;28;111616;-71
2021/04/08 13:53:26;;;;;;;1.65;1.27;;;;;;;21.73;32.13;102139.94;4947580;28;124335;-71
2021/04/08 13:55:51;;;;;;;2.97;1.30;;;;;;;21.74;31.95;102137.25;4920576;28;126705;-71
2021/04/08 13:58:16;;;;;;;2.05;1.75;;;;;;;21.75;32.08;102128.41;4926195;28;108516;-71
2021/04/08 14:00:42;;;;;;;1.58;1.33;;;;;;;21.75;32.23;102131.06;4914365;28;112930;-71
2021/04/08 14:03:08;;;;;;;1.63;1.27;;;;;;;21.76;32.01;102130.16;4914085;28;108104;-71
2021/04/08 14:05:33;;;;;;;1.80;1.30;;;;;;;21.78;32.15;102125.72;4931218;28;126595;-70
2021/04/08 14:07:58;;;;;;;1.75;1.10;;;;;;;21.80;31.83;102121.25;4970804;22;112303;-73
2021/04/08 14:10:24;;;;;;;1.77;1.20;;;;;;;21.81;31.96;102119.47;4938146;28;113042;-73
2021/04/08 14:12:50;;;;;;;2.10;1.50;;;;;;;21.83;31.94;102122.97;4956817;28;109515;-73
2021/04/08 14:15:15;;;;;;;1.30;1.02;;;;;;;21.86;32.04;102121.16;4974666;28;96739;-73
2021/04/08 14:17:41;;;;;;;2.03;1.27;;;;;;;21.90;31.86;102119.34;4956687;28;112012;-73
2021/04/08 14:20:07;;;;;;;1.75;1.10;;;;;;;21.92;31.92;102119.31;4938535;28;96778;-73
2021/04/08 14:22:33;;;;;;;2.00;1.20;;;;;;;21.95;31.89;102116.63;4937314;28;124695;-73
2021/04/08 14:24:59;;;;;;;2.05;1.38;;;;;;;21.96;31.63;102115.72;4956619;28;98858;-73
2021/04/08 14:27:24;;;;;;;1.67;1.20;;;;;;;21.97;31.65;102102.41;4940623;28;109037;-73
2021/04/08 14:29:49;;;;;;;2.20;1.35;;;;;;;22.00;31.72;102102.38;4958612;28;112104;-73
2021/04/08 14:32:15;;;;;;;1.25;1.00;;;;;;;22.03;31.63;102104.09;4972845;28;127299;-72
2021/04/08 14:34:40;;;;;;;1.50;1.20;;;;;;;22.04;31.50;102100.53;4941284;28;100122;-73
2021/04/08 14:37:06;;;;;;;1.85;1.75;;;;;;;22.05;31.55;102099.66;4988438;28;112071;-73
2021/04/08 14:39:33;;;;;;;2.00;1.20;;;;;;;22.05;31.39;102097.88;4973430;28;98975;-72
2021/04/08 14:41:59;;;;;;;1.95;1.33;;;;;;;22.06;31.68;102094.28;4956720;28;100529;-73
2021/04/08 14:44:24;;;;;;;1.50;1.20;;;;;;;22.05;31.78;102094.34;4969886;28;98437;-73
2021/04/08 14:46:49;;;;;;;1.60;1.08;;;;;;;22.05;31.54;102087.25;4967346;28;104407;-72
2021/04/08 14:49:15;;;;;;;1.42;0.98;;;;;;;22.07;31.45;102084.56;4951224;28;98660;-72
2021/04/08 14:51:40;;;;;;;1.40;1.10;;;;;;;22.09;31.57;102077.44;4974032;28;125737;-72
2021/04/08 14:54:06;;;;;;;1.33;1.10;;;;;;;22.13;31.50;102072.97;4956069;28;128708;-73
2021/04/08 14:56:31;;;;;;;1.20;0.95;;;;;;;22.15;31.75;102069.34;4947064;28;96810;-73
2021/04/08 14:58:57;;;;;;;1.58;1.48;;;;;;;22.18;31.27;102069.31;4924468;28;97397;-73
2021/04/08 15:01:22;;;;;;;0.80;0.60;;;;;;;22.21;31.58;102065.72;4971871;28;114923;-72
2021/04/08 15:03:48;;;;;;;1.70;1.48;;;;;;;22.24;31.29;102063.00;4988334;28;97116;-73
2021/04/08 15:06:13;;;;;;;1.55;1.10;;;;;;;22.27;31.51;102054.16;4954990;28;97003;-72
2021/04/08 15:08:39;;;;;;;1.55;1.30;;;;;;;22.29;31.56;102057.66;4950011;28;97009;-72
2021/04/08 15:11:04;;;;;;;1.67;1.10;;;;;;;22.32;31.73;102044.34;4928999;28;125708;-73
2021/04/08 15:13:30;;;;;;;1.60;1.02;;;;;;;22.35;31.37;102052.22;4888016;28;98577;-72
2021/04/08 15:15:55;;;;;;;1.52;1.40;;;;;;;22.37;31.47;102053.06;4933878;28;105730;-72
2021/04/08 15:18:20;;;;;;;1.45;1.17;;;;;;;22.38;31.23;102046.88;4917467;28;111747;-72
2021/04/08 15:20:46;;;;;;;1.23;1.13;;;;;;;22.39;31.21;102044.19;4889551;28;99315;-72
2021/04/08 15:23:11;;;;;;;1.60;1.23;;;;;;;22.42;31.13;102045.91;4933224;28;126512;-75
2021/04/08 15:25:37;;;;;;;2.80;1.20;;;;;;;22.42;31.22;102043.25;4914986;28;104732;-75
2021/04/08 15:28:02;;;;;;;1.50;0.98;;;;;;;22.44;31.12;102036.13;4914780;28;111824;-75
2021/04/08 15:30:28;;;;;;;1.75;1.10;;;;;;;22.45;31.08;102034.34;4928612;28;126864;-75
2021/04/08 15:32:53;;;;;;;1.52;0.90;;;;;;;22.46;31.19;102037.00;4949144;28;102117;-75
2021/04/08 15:35:21;;;;;;;1.33;1.23;;;;;;;22.47;31.05;102030.75;4915719;28;97211;-75
2021/04/08 15:37:47;;;;;;;3.38;1.30;;;;;;;22.48;31.28;102023.63;4891502;28;96740;-75
2021/04/08 15:40:15;;;;;;;2.03;1.17;;;;;;;22.47;31.24;102022.78;4915496;28;101011;-74
